Napoleon, IN (47034)

5:58 PM EDT on September 04, 2015 (GMT -0400)
KINBATES2 | | Change Station
CLOSE
Current Station
Personal Weather Station
Location: Batesville, IN
Elevation: 974 ft
Nearby Weather Stations

Elev 974 ft 39.29 °N, 85.23 °W | Updated 1 minute ago

Partly Cloudy
Partly Cloudy
92.5 °F
Feels Like 100 °F
N
1.0
Wind Variable Wind from SW
Gusts 3.0 mph

Today
High -- | Low -- °F
--% Chance of Precip.
Yesterday
High -- | Low -- °F
Precip. -- in
7:12 AM 8:07 PM
Waning Gibbous, 55% visible
Pressure 30.01 in
Visibility 10.0 miles
Clouds Clear
Heat Index 100 °F
Dew Point 72 °F
Humidity 51%
Rainfall 0.00 in
Snow Depth Not available.
UV 4 out of 12
Pollen 9.90 out of 12
Air Quality Not available.
Flu Activity Not available.
METAR KBAK 042055Z 22004KT 10SM SKC 32/15 A3001
Pressure 30.01 in
Visibility 10.0 miles
Clouds Clear
Heat Index 100 °F
Dew Point 72 °F
Humidity 51%
Rainfall 0.00 in
Snow Depth Not available.
UV 4 out of 12
Pollen 9.90 out of 12
Air Quality Not available.
Flu Activity Not available.
METAR KBAK 042055Z 22004KT 10SM SKC 32/15 A3001

10-Day Weather Forecast

×

Almanac

Astronomy

Sep. 04, 2015 Rise Set
Actual Time
Civil Twilight
Nautical Twilight
Astronomical Twilight
Moon
Length of Visible Light
Length of Day
Tomorrow will be .
, % of the Moon is Illuminated

Today's Extremes

State Highs State Lows

Community

WunderPhotos

Upload Photos

1,852,297 photos uploaded!

WunderBlogs® & News

Nearby

Air Quality

  Air Quality AQ Index Pollutant
Not available.

Snow Depth

Station Depth Elevation

Earthquake Activity

City Distance Mag. Time & Date
Minimum magnitude displayed is 2.5.

Coastal Water Temperatures

Place Temperature

Stations

Nearby Weather Stations

Station Location Temp. Windchill Dew Point Humidity Wind Precip. Elev Updated Type